sensor_id;sensor_type;location;lat;lon;timestamp;pressure;altitude;pressure_sealevel;temperature;humidity
76434;BME280;65265;53.200;6.080;2024-03-23T00:55:20;100891.09;;;4.87;100.00
76434;BME280;65265;53.200;6.080;2024-03-23T01:00:13;100883.22;;;4.83;100.00
76434;BME280;65265;53.200;6.080;2024-03-23T01:05:05;100867.72;;;4.78;100.00
76434;BME280;65265;53.200;6.080;2024-03-23T01:09:56;100858.56;;;4.80;100.00
76434;BME280;65265;53.200;6.080;2024-03-23T01:14:50;100854.00;;;4.75;100.00
76434;BME280;65265;53.200;6.080;2024-03-23T01:19:41;100851.38;;;4.73;100.00
76434;BME280;65265;53.200;6.080;2024-03-23T01:24:33;100846.72;;;4.66;100.00
76434;BME280;65265;53.200;6.080;2024-03-23T01:29:24;100844.34;;;4.69;100.00
76434;BME280;65265;53.200;6.080;2024-03-23T01:34:18;100833.75;;;4.62;100.00
76434;BME280;65265;53.200;6.080;2024-03-23T01:39:11;100832.59;;;4.57;100.00
76434;BME280;65265;53.200;6.080;2024-03-23T01:44:05;100828.31;;;4.56;100.00
76434;BME280;65265;53.200;6.080;2024-03-23T01:48:57;100809.41;;;4.51;100.00
76434;BME280;65265;53.200;6.080;2024-03-23T01:53:50;100812.44;;;4.46;100.00
76434;BME280;65265;53.200;6.080;2024-03-23T01:58:44;100807.19;;;4.43;100.00
76434;BME280;65265;53.200;6.080;2024-03-23T02:03:36;100802.50;;;4.36;100.00
76434;BME280;65265;53.200;6.080;2024-03-23T02:08:28;100793.00;;;4.32;100.00
76434;BME280;65265;53.200;6.080;2024-03-23T02:13:22;100799.63;;;4.30;100.00
76434;BME280;65265;53.200;6.080;2024-03-23T02:18:13;100789.19;;;4.25;100.00
76434;BME280;65265;53.200;6.080;2024-03-23T02:23:13;100777.81;;;4.19;100.00
76434;BME280;65265;53.200;6.080;2024-03-23T02:28:05;100778.88;;;4.22;100.00
76434;BME280;65265;53.200;6.080;2024-03-23T02:32:57;100774.69;;;4.23;100.00
76434;BME280;65265;53.200;6.080;2024-03-23T02:37:48;100765.81;;;4.29;100.00
76434;BME280;65265;53.200;6.080;2024-03-23T02:42:41;100761.53;;;4.28;100.00
76434;BME280;65265;53.200;6.080;2024-03-23T02:47:33;100749.00;;;4.30;100.00
76434;BME280;65265;53.200;6.080;2024-03-23T02:52:25;100737.13;;;4.29;100.00
76434;BME280;65265;53.200;6.080;2024-03-23T02:57:16;100737.38;;;4.33;100.00
76434;BME280;65265;53.200;6.080;2024-03-23T03:02:09;100741.41;;;4.30;100.00
76434;BME280;65265;53.200;6.080;2024-03-23T03:07:01;100741.19;;;4.27;100.00
76434;BME280;65265;53.200;6.080;2024-03-23T03:11:53;100723.38;;;4.25;100.00
76434;BME280;65265;53.200;6.080;2024-03-23T03:16:44;100718.16;;;4.22;100.00
76434;BME280;65265;53.200;6.080;2024-03-23T03:21:37;100727.19;;;4.19;100.00
76434;BME280;65265;53.200;6.080;2024-03-23T03:26:29;100715.50;;;4.21;100.00
76434;BME280;65265;53.200;6.080;2024-03-23T03:31:21;100715.34;;;4.18;100.00
76434;BME280;65265;53.200;6.080;2024-03-23T03:36:13;100706.06;;;4.18;100.00
76434;BME280;65265;53.200;6.080;2024-03-23T03:41:07;100703.25;;;4.14;100.00
76434;BME280;65265;53.200;6.080;2024-03-23T03:45:59;100690.53;;;4.12;100.00
76434;BME280;65265;53.200;6.080;2024-03-23T03:50:52;100687.59;;;4.06;100.00
76434;BME280;65265;53.200;6.080;2024-03-23T03:55:44;100685.25;;;4.09;100.00
76434;BME280;65265;53.200;6.080;2024-03-23T04:00:37;100691.97;;;4.09;100.00
76434;BME280;65265;53.200;6.080;2024-03-23T04:05:29;100682.03;;;4.12;100.00
76434;BME280;65265;53.200;6.080;2024-03-23T04:10:20;100674.44;;;4.12;100.00
76434;BME280;65265;53.200;6.080;2024-03-23T04:15:12;100671.53;;;4.19;100.00
76434;BME280;65265;53.200;6.080;2024-03-23T04:20:06;100667.31;;;4.19;100.00
76434;BME280;65265;53.200;6.080;2024-03-23T04:25:01;100674.84;;;4.18;100.00
76434;BME280;65265;53.200;6.080;2024-03-23T04:29:56;100669.38;;;4.12;100.00
76434;BME280;65265;53.200;6.080;2024-03-23T04:34:48;100668.53;;;4.11;100.00
76434;BME280;65265;53.200;6.080;2024-03-23T04:39:42;100661.44;;;4.06;100.00
76434;BME280;65265;53.200;6.080;2024-03-23T04:44:33;100663.69;;;4.01;100.00
76434;BME280;65265;53.200;6.080;2024-03-23T04:49:25;100662.91;;;4.02;100.00
76434;BME280;65265;53.200;6.080;2024-03-23T04:54:17;100653.84;;;4.06;100.00
76434;BME280;65265;53.200;6.080;2024-03-23T04:59:09;100647.00;;;4.05;100.00
76434;BME280;65265;53.200;6.080;2024-03-23T05:04:02;100648.97;;;4.09;100.00
76434;BME280;65265;53.200;6.080;2024-03-23T05:08:53;100637.56;;;4.15;100.00
76434;BME280;65265;53.200;6.080;2024-03-23T05:13:45;100629.78;;;4.12;100.00
76434;BME280;65265;53.200;6.080;2024-03-23T05:18:38;100643.31;;;4.13;100.00
76434;BME280;65265;53.200;6.080;2024-03-23T05:23:29;100646.00;;;4.16;100.00
76434;BME280;65265;53.200;6.080;2024-03-23T05:28:21;100655.63;;;4.21;100.00
76434;BME280;65265;53.200;6.080;2024-03-23T05:33:13;100669.91;;;4.34;100.00
76434;BME280;65265;53.200;6.080;2024-03-23T05:38:06;100665.69;;;4.47;100.00
76434;BME280;65265;53.200;6.080;2024-03-23T05:42:57;100642.47;;;4.40;100.00
76434;BME280;65265;53.200;6.080;2024-03-23T05:47:49;100636.22;;;4.35;100.00
76434;BME280;65265;53.200;6.080;2024-03-23T05:52:41;100632.75;;;4.33;100.00
76434;BME280;65265;53.200;6.080;2024-03-23T05:57:35;100635.44;;;4.36;100.00
76434;BME280;65265;53.200;6.080;2024-03-23T06:02:27;100634.75;;;4.38;100.00
76434;BME280;65265;53.200;6.080;2024-03-23T06:07:18;100643.16;;;4.37;100.00
76434;BME280;65265;53.200;6.080;2024-03-23T06:12:10;100647.97;;;4.47;100.00
76434;BME280;65265;53.200;6.080;2024-03-23T06:17:03;100639.25;;;4.57;100.00
76434;BME280;65265;53.200;6.080;2024-03-23T06:21:56;100638.94;;;4.65;100.00
76434;BME280;65265;53.200;6.080;2024-03-23T06:26:47;100638.88;;;4.78;100.00
76434;BME280;65265;53.200;6.080;2024-03-23T06:31:39;100641.66;;;4.82;100.00
76434;BME280;65265;53.200;6.080;2024-03-23T06:36:34;100644.94;;;4.94;100.00
76434;BME280;65265;53.200;6.080;2024-03-23T06:41:28;100645.56;;;5.05;100.00
76434;BME280;65265;53.200;6.080;2024-03-23T06:46:20;100623.34;;;4.86;100.00
76434;BME280;65265;53.200;6.080;2024-03-23T06:51:12;100618.78;;;4.66;100.00
76434;BME280;65265;53.200;6.080;2024-03-23T06:56:06;100618.38;;;4.60;100.00
76434;BME280;65265;53.200;6.080;2024-03-23T07:00:58;100615.84;;;4.60;100.00
76434;BME280;65265;53.200;6.080;2024-03-23T07:05:49;100623.94;;;4.82;100.00
76434;BME280;65265;53.200;6.080;2024-03-23T07:10:41;100611.22;;;4.95;100.00
76434;BME280;65265;53.200;6.080;2024-03-23T07:15:34;100606.22;;;4.97;100.00
76434;BME280;65265;53.200;6.080;2024-03-23T07:20:26;100603.59;;;5.10;100.00
76434;BME280;65265;53.200;6.080;2024-03-23T07:25:20;100597.13;;;5.29;100.00
76434;BME280;65265;53.200;6.080;2024-03-23T07:30:13;100592.34;;;5.64;100.00
76434;BME280;65265;53.200;6.080;2024-03-23T07:35:07;100621.31;;;5.98;100.00
76434;BME280;65265;53.200;6.080;2024-03-23T07:39:59;100621.59;;;5.88;100.00
76434;BME280;65265;53.200;6.080;2024-03-23T07:44:50;100608.25;;;5.62;100.00
76434;BME280;65265;53.200;6.080;2024-03-23T07:49:42;100602.69;;;5.53;100.00
76434;BME280;65265;53.200;6.080;2024-03-23T07:54:36;100597.31;;;5.63;100.00
76434;BME280;65265;53.200;6.080;2024-03-23T07:59:27;100592.13;;;5.90;100.00
76434;BME280;65265;53.200;6.080;2024-03-23T08:04:22;100578.13;;;6.13;100.00
76434;BME280;65265;53.200;6.080;2024-03-23T08:09:13;100572.81;;;6.40;100.00
76434;BME280;65265;53.200;6.080;2024-03-23T08:14:06;100570.72;;;6.65;100.00
76434;BME280;65265;53.200;6.080;2024-03-23T08:18:58;100566.34;;;6.96;100.00
76434;BME280;65265;53.200;6.080;2024-03-23T08:23:50;100553.31;;;7.23;100.00
76434;BME280;65265;53.200;6.080;2024-03-23T08:28:41;100543.94;;;7.40;100.00
76434;BME280;65265;53.200;6.080;2024-03-23T08:33:35;100550.22;;;7.48;100.00
76434;BME280;65265;53.200;6.080;2024-03-23T08:38:27;100542.09;;;7.55;100.00
76434;BME280;65265;53.200;6.080;2024-03-23T08:43:19;100548.09;;;7.74;100.00
76434;BME280;65265;53.200;6.080;2024-03-23T08:48:11;100539.91;;;7.99;100.00
76434;BME280;65265;53.200;6.080;2024-03-23T08:53:04;100535.59;;;8.34;100.00
76434;BME280;65265;53.200;6.080;2024-03-23T08:57:56;100515.44;;;8.02;100.00
76434;BME280;65265;53.200;6.080;2024-03-23T09:02:48;100553.56;;;7.47;100.00
76434;BME280;65265;53.200;6.080;2024-03-23T09:07:39;100541.97;;;6.66;100.00
76434;BME280;65265;53.200;6.080;2024-03-23T09:12:33;100565.81;;;6.36;100.00
76434;BME280;65265;53.200;6.080;2024-03-23T09:17:25;100582.78;;;6.37;100.00
76434;BME280;65265;53.200;6.080;2024-03-23T09:22:17;100611.06;;;5.97;100.00
76434;BME280;65265;53.200;6.080;2024-03-23T09:27:09;100578.22;;;5.39;100.00
76434;BME280;65265;53.200;6.080;2024-03-23T09:32:02;100583.63;;;5.90;100.00
76434;BME280;65265;53.200;6.080;2024-03-23T09:36:54;100576.59;;;6.48;100.00
76434;BME280;65265;53.200;6.080;2024-03-23T09:41:46;100560.75;;;7.03;100.00
76434;BME280;65265;53.200;6.080;2024-03-23T09:46:38;100548.72;;;7.51;100.00
76434;BME280;65265;53.200;6.080;2024-03-23T09:51:31;100528.53;;;7.73;100.00
76434;BME280;65265;53.200;6.080;2024-03-23T09:56:23;100529.06;;;7.49;100.00
76434;BME280;65265;53.200;6.080;2024-03-23T10:01:15;100527.94;;;7.25;100.00
76434;BME280;65265;53.200;6.080;2024-03-23T10:06:08;100523.03;;;6.77;100.00
76434;BME280;65265;53.200;6.080;2024-03-23T10:11:12;100528.41;;;6.83;100.00
76434;BME280;65265;53.200;6.080;2024-03-23T10:16:04;100509.75;;;7.35;100.00
76434;BME280;65265;53.200;6.080;2024-03-23T10:21:07;100510.81;;;7.94;100.00
76434;BME280;65265;53.200;6.080;2024-03-23T10:26:13;100538.81;;;7.75;100.00
76434;BME280;65265;53.200;6.080;2024-03-23T10:31:11;100534.34;;;7.17;100.00
76434;BME280;65265;53.200;6.080;2024-03-23T10:36:05;100542.81;;;7.00;100.00
76434;BME280;65265;53.200;6.080;2024-03-23T10:40:59;100558.16;;;6.68;100.00
76434;BME280;65265;53.200;6.080;2024-03-23T10:45:52;100561.13;;;6.28;100.00
76434;BME280;65265;53.200;6.080;2024-03-23T10:50:44;100562.94;;;6.14;100.00
76434;BME280;65265;53.200;6.080;2024-03-23T10:55:36;100566.59;;;6.51;100.00
76434;BME280;65265;53.200;6.080;2024-03-23T11:00:27;100545.38;;;7.00;100.00
76434;BME280;65265;53.200;6.080;2024-03-23T11:05:30;100527.53;;;7.70;100.00
76434;BME280;65265;53.200;6.080;2024-03-23T11:10:26;100498.41;;;8.19;100.00
76434;BME280;65265;53.200;6.080;2024-03-23T11:15:19;100494.22;;;8.21;100.00
76434;BME280;65265;53.200;6.080;2024-03-23T11:20:11;100507.66;;;7.99;100.00
76434;BME280;65265;53.200;6.080;2024-03-23T11:25:12;100502.69;;;7.83;100.00
76434;BME280;65265;53.200;6.080;2024-03-23T11:30:14;100515.03;;;7.57;100.00
76434;BME280;65265;53.200;6.080;2024-03-23T11:35:06;100502.38;;;7.22;100.00
76434;BME280;65265;53.200;6.080;2024-03-23T11:40:00;100504.59;;;7.16;100.00
76434;BME280;65265;53.200;6.080;2024-03-23T11:44:53;100528.25;;;7.31;100.00
76434;BME280;65265;53.200;6.080;2024-03-23T11:49:48;100556.50;;;6.69;100.00
76434;BME280;65265;53.200;6.080;2024-03-23T11:54:40;100550.88;;;6.42;100.00
76434;BME280;65265;53.200;6.080;2024-03-23T11:59:35;100536.97;;;6.68;100.00
76434;BME280;65265;53.200;6.080;2024-03-23T12:04:30;100520.97;;;7.21;100.00
76434;BME280;65265;53.200;6.080;2024-03-23T12:09:22;100515.88;;;7.21;100.00
76434;BME280;65265;53.200;6.080;2024-03-23T12:14:14;100508.91;;;7.17;100.00
76434;BME280;65265;53.200;6.080;2024-03-23T12:19:06;100524.75;;;7.11;100.00
76434;BME280;65265;53.200;6.080;2024-03-23T12:23:59;100518.22;;;6.66;100.00
76434;BME280;65265;53.200;6.080;2024-03-23T12:28:52;100532.16;;;6.40;100.00
76434;BME280;65265;53.200;6.080;2024-03-23T12:33:44;100513.66;;;6.76;100.00
76434;BME280;65265;53.200;6.080;2024-03-23T12:38:37;100517.88;;;6.76;100.00
76434;BME280;65265;53.200;6.080;2024-03-23T12:43:31;100533.06;;;6.58;100.00
76434;BME280;65265;53.200;6.080;2024-03-23T12:48:24;100542.72;;;6.32;100.00
76434;BME280;65265;53.200;6.080;2024-03-23T12:53:17;100519.84;;;6.48;100.00
76434;BME280;65265;53.200;6.080;2024-03-23T12:58:10;100517.16;;;6.78;100.00
76434;BME280;65265;53.200;6.080;2024-03-23T13:03:05;100517.72;;;7.23;100.00
76434;BME280;65265;53.200;6.080;2024-03-23T13:07:57;100525.47;;;6.92;100.00
76434;BME280;65265;53.200;6.080;2024-03-23T13:12:50;100532.22;;;7.26;100.00
76434;BME280;65265;53.200;6.080;2024-03-23T13:17:41;100527.94;;;7.07;100.00
76434;BME280;65265;53.200;6.080;2024-03-23T13:22:36;100520.53;;;6.61;100.00
76434;BME280;65265;53.200;6.080;2024-03-23T13:27:28;100517.41;;;7.00;100.00
76434;BME280;65265;53.200;6.080;2024-03-23T13:32:21;100526.66;;;6.49;100.00
76434;BME280;65265;53.200;6.080;2024-03-23T13:37:12;100536.53;;;6.11;100.00
76434;BME280;65265;53.200;6.080;2024-03-23T13:42:06;100533.91;;;6.25;100.00
76434;BME280;65265;53.200;6.080;2024-03-23T13:46:59;100543.50;;;5.99;100.00
76434;BME280;65265;53.200;6.080;2024-03-23T13:51:51;100527.69;;;6.52;100.00
76434;BME280;65265;53.200;6.080;2024-03-23T13:56:44;100509.06;;;6.69;100.00
76434;BME280;65265;53.200;6.080;2024-03-23T14:01:40;100492.41;;;7.26;100.00
76434;BME280;65265;53.200;6.080;2024-03-23T14:06:32;100479.72;;;7.63;100.00
76434;BME280;65265;53.200;6.080;2024-03-23T14:11:26;100479.50;;;7.77;100.00
76434;BME280;65265;53.200;6.080;2024-03-23T14:16:19;100488.19;;;7.63;100.00
76434;BME280;65265;53.200;6.080;2024-03-23T14:21:13;100471.59;;;8.09;100.00
76434;BME280;65265;53.200;6.080;2024-03-23T14:26:06;100459.88;;;7.94;100.00
76434;BME280;65265;53.200;6.080;2024-03-23T14:30:59;100465.41;;;7.47;100.00
76434;BME280;65265;53.200;6.080;2024-03-23T14:35:55;100464.53;;;7.28;100.00
76434;BME280;65265;53.200;6.080;2024-03-23T14:40:50;100457.53;;;7.60;100.00
76434;BME280;65265;53.200;6.080;2024-03-23T14:46:09;100461.06;;;7.45;100.00
76434;BME280;65265;53.200;6.080;2024-03-23T14:51:04;100471.53;;;7.70;100.00
76434;BME280;65265;53.200;6.080;2024-03-23T14:56:00;100440.44;;;8.15;100.00
76434;BME280;65265;53.200;6.080;2024-03-23T15:01:00;100432.69;;;8.31;100.00
76434;BME280;65265;53.200;6.080;2024-03-23T15:05:54;100448.25;;;7.99;100.00
76434;BME280;65265;53.200;6.080;2024-03-23T15:10:48;100441.44;;;8.37;100.00
76434;BME280;65265;53.200;6.080;2024-03-23T15:15:44;100432.56;;;8.69;100.00
76434;BME280;65265;53.200;6.080;2024-03-23T15:20:39;100409.75;;;8.51;100.00
76434;BME280;65265;53.200;6.080;2024-03-23T15:25:30;100401.47;;;7.97;100.00
76434;BME280;65265;53.200;6.080;2024-03-23T15:30:22;100420.63;;;7.89;100.00
76434;BME280;65265;53.200;6.080;2024-03-23T15:35:16;100412.72;;;8.21;100.00
76434;BME280;65265;53.200;6.080;2024-03-23T15:40:09;100414.53;;;8.44;100.00
76434;BME280;65265;53.200;6.080;2024-03-23T15:45:02;100404.97;;;8.59;100.00
76434;BME280;65265;53.200;6.080;2024-03-23T15:49:54;100410.56;;;8.30;100.00
76434;BME280;65265;53.200;6.080;2024-03-23T15:54:48;100410.66;;;7.93;100.00
76434;BME280;65265;53.200;6.080;2024-03-23T15:59:40;100416.34;;;8.07;100.00
76434;BME280;65265;53.200;6.080;2024-03-23T16:04:32;100405.91;;;8.20;100.00
76434;BME280;65265;53.200;6.080;2024-03-23T16:09:23;100406.69;;;7.81;100.00
76434;BME280;65265;53.200;6.080;2024-03-23T16:14:17;100402.84;;;7.51;100.00
76434;BME280;65265;53.200;6.080;2024-03-23T16:19:09;100404.53;;;7.33;100.00
76434;BME280;65265;53.200;6.080;2024-03-23T16:24:02;100417.47;;;7.37;100.00
76434;BME280;65265;53.200;6.080;2024-03-23T16:28:54;100407.66;;;7.64;100.00
76434;BME280;65265;53.200;6.080;2024-03-23T16:33:47;100384.88;;;7.67;100.00
76434;BME280;65265;53.200;6.080;2024-03-23T16:38:41;100387.69;;;7.73;100.00
76434;BME280;65265;53.200;6.080;2024-03-23T16:43:34;100372.16;;;7.67;100.00
76434;BME280;65265;53.200;6.080;2024-03-23T16:48:27;100378.19;;;7.69;100.00
76434;BME280;65265;53.200;6.080;2024-03-23T16:53:21;100369.75;;;7.51;100.00
76434;BME280;65265;53.200;6.080;2024-03-23T16:58:13;100385.47;;;7.42;100.00
76434;BME280;65265;53.200;6.080;2024-03-23T17:03:05;100376.88;;;7.21;100.00
76434;BME280;65265;53.200;6.080;2024-03-23T17:07:56;100380.09;;;7.17;100.00
76434;BME280;65265;53.200;6.080;2024-03-23T17:12:50;100377.53;;;7.17;100.00
76434;BME280;65265;53.200;6.080;2024-03-23T17:17:41;100393.41;;;7.12;100.00
76434;BME280;65265;53.200;6.080;2024-03-23T17:22:33;100387.84;;;7.02;100.00
76434;BME280;65265;53.200;6.080;2024-03-23T17:27:25;100383.63;;;6.85;100.00
76434;BME280;65265;53.200;6.080;2024-03-23T17:32:20;100391.63;;;6.75;100.00
76434;BME280;65265;53.200;6.080;2024-03-23T17:37:13;100387.06;;;6.68;100.00
76434;BME280;65265;53.200;6.080;2024-03-23T17:42:06;100384.34;;;6.65;100.00
76434;BME280;65265;53.200;6.080;2024-03-23T17:46:58;100390.69;;;6.55;100.00
76434;BME280;65265;53.200;6.080;2024-03-23T17:51:53;100382.34;;;6.40;100.00
76434;BME280;65265;53.200;6.080;2024-03-23T17:56:46;100384.41;;;6.31;100.00
76434;BME280;65265;53.200;6.080;2024-03-23T18:01:39;100383.75;;;6.35;100.00
76434;BME280;65265;53.200;6.080;2024-03-23T18:06:32;100380.41;;;6.36;100.00
76434;BME280;65265;53.200;6.080;2024-03-23T18:11:26;100382.22;;;6.21;100.00
76434;BME280;65265;53.200;6.080;2024-03-23T18:16:18;100387.16;;;6.18;100.00
76434;BME280;65265;53.200;6.080;2024-03-23T18:21:10;100372.84;;;6.03;100.00
76434;BME280;65265;53.200;6.080;2024-03-23T18:26:03;100379.75;;;5.89;100.00
76434;BME280;65265;53.200;6.080;2024-03-23T18:30:58;100372.28;;;5.76;100.00
76434;BME280;65265;53.200;6.080;2024-03-23T18:35:51;100369.97;;;5.65;100.00
76434;BME280;65265;53.200;6.080;2024-03-23T18:40:44;100362.63;;;5.53;100.00
76434;BME280;65265;53.200;6.080;2024-03-23T18:45:37;100368.66;;;5.55;100.00
76434;BME280;65265;53.200;6.080;2024-03-23T18:50:40;100358.97;;;5.48;100.00
76434;BME280;65265;53.200;6.080;2024-03-23T18:55:32;100371.19;;;5.39;100.00
76434;BME280;65265;53.200;6.080;2024-03-23T19:00:25;100376.88;;;5.35;100.00
76434;BME280;65265;53.200;6.080;2024-03-23T19:05:17;100368.13;;;5.45;100.00
76434;BME280;65265;53.200;6.080;2024-03-23T19:10:12;100367.69;;;5.37;100.00
76434;BME280;65265;53.200;6.080;2024-03-23T19:15:07;100369.81;;;5.30;100.00
76434;BME280;65265;53.200;6.080;2024-03-23T19:19:59;100367.94;;;5.26;100.00
76434;BME280;65265;53.200;6.080;2024-03-23T19:24:51;100363.81;;;5.12;100.00
76434;BME280;65265;53.200;6.080;2024-03-23T19:29:49;100362.44;;;5.02;100.00
76434;BME280;65265;53.200;6.080;2024-03-23T19:34:42;100350.72;;;5.04;100.00
76434;BME280;65265;53.200;6.080;2024-03-23T19:39:36;100347.72;;;4.95;100.00
76434;BME280;65265;53.200;6.080;2024-03-23T19:44:31;100346.56;;;4.90;100.00
76434;BME280;65265;53.200;6.080;2024-03-23T19:49:26;100343.59;;;4.97;100.00
76434;BME280;65265;53.200;6.080;2024-03-23T19:54:19;100344.78;;;5.04;100.00
76434;BME280;65265;53.200;6.080;2024-03-23T19:59:11;100329.50;;;5.02;100.00
76434;BME280;65265;53.200;6.080;2024-03-23T20:04:03;100340.03;;;5.10;100.00
76434;BME280;65265;53.200;6.080;2024-03-23T20:08:56;100327.94;;;5.20;100.00
76434;BME280;65265;53.200;6.080;2024-03-23T20:13:49;100327.38;;;5.26;100.00
76434;BME280;65265;53.200;6.080;2024-03-23T20:18:40;100321.41;;;5.25;100.00
76434;BME280;65265;53.200;6.080;2024-03-23T20:23:33;100324.91;;;5.27;100.00
76434;BME280;65265;53.200;6.080;2024-03-23T20:28:27;100320.88;;;5.31;100.00
76434;BME280;65265;53.200;6.080;2024-03-23T20:33:19;100309.47;;;5.39;100.00
76434;BME280;65265;53.200;6.080;2024-03-23T20:38:11;100308.03;;;5.44;100.00
76434;BME280;65265;53.200;6.080;2024-03-23T20:43:07;100302.94;;;5.44;100.00
76434;BME280;65265;53.200;6.080;2024-03-23T20:48:04;100299.47;;;5.42;100.00
76434;BME280;65265;53.200;6.080;2024-03-23T20:52:57;100286.88;;;5.43;100.00
76434;BME280;65265;53.200;6.080;2024-03-23T20:57:51;100279.75;;;5.52;100.00
76434;BME280;65265;53.200;6.080;2024-03-23T21:02:44;100285.44;;;5.48;100.00
76434;BME280;65265;53.200;6.080;2024-03-23T21:07:39;100280.69;;;5.54;100.00
76434;BME280;65265;53.200;6.080;2024-03-23T21:12:32;100261.09;;;5.52;100.00
76434;BME280;65265;53.200;6.080;2024-03-23T21:17:26;100253.88;;;5.59;100.00
76434;BME280;65265;53.200;6.080;2024-03-23T21:22:18;100234.09;;;5.52;100.00
76434;BME280;65265;53.200;6.080;2024-03-23T21:27:13;100240.56;;;5.63;100.00
76434;BME280;65265;53.200;6.080;2024-03-23T21:32:06;100231.66;;;5.71;100.00
76434;BME280;65265;53.200;6.080;2024-03-23T21:36:58;100219.28;;;5.77;100.00
76434;BME280;65265;53.200;6.080;2024-03-23T21:41:52;100208.59;;;5.83;100.00
76434;BME280;65265;53.200;6.080;2024-03-23T21:46:47;100195.63;;;5.78;100.00
76434;BME280;65265;53.200;6.080;2024-03-23T21:51:40;100190.56;;;5.78;100.00
76434;BME280;65265;53.200;6.080;2024-03-23T21:56:32;100168.72;;;5.80;100.00
76434;BME280;65265;53.200;6.080;2024-03-23T22:01:24;100157.72;;;5.80;100.00
76434;BME280;65265;53.200;6.080;2024-03-23T22:06:17;100160.78;;;5.74;100.00
76434;BME280;65265;53.200;6.080;2024-03-23T22:11:09;100158.25;;;5.74;100.00
76434;BME280;65265;53.200;6.080;2024-03-23T22:16:03;100165.06;;;5.75;100.00
76434;BME280;65265;53.200;6.080;2024-03-23T22:20:58;100188.84;;;5.77;100.00
76434;BME280;65265;53.200;6.080;2024-03-23T22:25:54;100170.53;;;5.49;100.00
76434;BME280;65265;53.200;6.080;2024-03-23T22:30:55;100148.94;;;5.40;100.00
76434;BME280;65265;53.200;6.080;2024-03-23T22:35:48;100135.41;;;5.39;100.00
76434;BME280;65265;53.200;6.080;2024-03-23T22:40:42;100134.75;;;5.43;100.00
76434;BME280;65265;53.200;6.080;2024-03-23T22:45:54;100116.22;;;5.44;100.00
76434;BME280;65265;53.200;6.080;2024-03-23T22:50:46;100090.63;;;5.40;100.00
76434;BME280;65265;53.200;6.080;2024-03-23T22:55:38;100101.09;;;5.46;100.00
76434;BME280;65265;53.200;6.080;2024-03-23T23:00:31;100086.94;;;5.33;100.00
76434;BME280;65265;53.200;6.080;2024-03-23T23:05:26;100067.47;;;5.32;100.00
76434;BME280;65265;53.200;6.080;2024-03-23T23:10:18;100073.19;;;5.28;100.00
76434;BME280;65265;53.200;6.080;2024-03-23T23:15:11;100067.81;;;5.22;100.00
76434;BME280;65265;53.200;6.080;2024-03-23T23:20:03;100059.91;;;5.16;100.00
76434;BME280;65265;53.200;6.080;2024-03-23T23:24:58;100076.44;;;5.26;100.00
76434;BME280;65265;53.200;6.080;2024-03-23T23:29:51;100060.13;;;5.21;100.00
76434;BME280;65265;53.200;6.080;2024-03-23T23:34:43;100042.03;;;5.13;100.00
76434;BME280;65265;53.200;6.080;2024-03-23T23:39:38;100050.72;;;5.36;100.00
76434;BME280;65265;53.200;6.080;2024-03-23T23:44:33;100038.78;;;5.33;100.00
76434;BME280;65265;53.200;6.080;2024-03-23T23:49:25;100020.59;;;5.24;100.00
76434;BME280;65265;53.200;6.080;2024-03-23T23:54:19;100015.38;;;5.21;100.00
76434;BME280;65265;53.200;6.080;2024-03-23T23:59:11;100017.13;;;5.22;100.00
